sensor_id;sensor_type;location;lat;lon;timestamp;P1;durP1;ratioP1;P2;durP2;ratioP2
70297;SDS011;57702;44.420;20.298;2023-02-19T00:01:00;83.95;;;25.40;;
70297;SDS011;57702;44.420;20.298;2023-02-19T00:03:28;86.43;;;26.08;;
70297;SDS011;57702;44.420;20.298;2023-02-19T00:05:54;55.13;;;22.35;;
70297;SDS011;57702;44.420;20.298;2023-02-19T00:08:20;86.78;;;25.48;;
70297;SDS011;57702;44.420;20.298;2023-02-19T00:10:47;87.80;;;29.77;;
70297;SDS011;57702;44.420;20.298;2023-02-19T00:13:13;119.70;;;29.00;;
70297;SDS011;57702;44.420;20.298;2023-02-19T00:15:39;83.85;;;23.98;;
70297;SDS011;57702;44.420;20.298;2023-02-19T00:18:05;76.18;;;23.45;;
70297;SDS011;57702;44.420;20.298;2023-02-19T00:20:31;45.33;;;15.75;;
70297;SDS011;57702;44.420;20.298;2023-02-19T00:22:58;48.30;;;15.90;;
70297;SDS011;57702;44.420;20.298;2023-02-19T00:25:24;32.28;;;14.95;;
70297;SDS011;57702;44.420;20.298;2023-02-19T00:27:50;62.60;;;20.00;;
70297;SDS011;57702;44.420;20.298;2023-02-19T00:30:16;66.80;;;23.10;;
70297;SDS011;57702;44.420;20.298;2023-02-19T00:32:42;65.88;;;22.90;;
70297;SDS011;57702;44.420;20.298;2023-02-19T00:35:08;84.05;;;24.55;;
70297;SDS011;57702;44.420;20.298;2023-02-19T00:37:35;88.65;;;28.17;;
70297;SDS011;57702;44.420;20.298;2023-02-19T00:40:01;75.93;;;25.48;;
70297;SDS011;57702;44.420;20.298;2023-02-19T00:42:27;51.85;;;17.92;;
70297;SDS011;57702;44.420;20.298;2023-02-19T00:44:53;48.42;;;17.10;;
70297;SDS011;57702;44.420;20.298;2023-02-19T00:47:19;90.32;;;29.13;;
70297;SDS011;57702;44.420;20.298;2023-02-19T00:49:45;63.50;;;27.95;;
70297;SDS011;57702;44.420;20.298;2023-02-19T00:52:12;136.77;;;42.42;;
70297;SDS011;57702;44.420;20.298;2023-02-19T00:54:38;75.97;;;31.33;;
70297;SDS011;57702;44.420;20.298;2023-02-19T00:57:04;91.65;;;35.10;;
70297;SDS011;57702;44.420;20.298;2023-02-19T00:59:30;122.57;;;35.63;;
70297;SDS011;57702;44.420;20.298;2023-02-19T01:01:56;96.47;;;31.38;;
70297;SDS011;57702;44.420;20.298;2023-02-19T01:04:22;57.92;;;22.92;;
70297;SDS011;57702;44.420;20.298;2023-02-19T01:06:49;47.85;;;18.10;;
70297;SDS011;57702;44.420;20.298;2023-02-19T01:09:15;26.20;;;12.88;;
70297;SDS011;57702;44.420;20.298;2023-02-19T01:11:41;37.10;;;15.45;;
70297;SDS011;57702;44.420;20.298;2023-02-19T01:14:07;35.30;;;14.57;;
70297;SDS011;57702;44.420;20.298;2023-02-19T01:16:34;45.83;;;14.32;;
70297;SDS011;57702;44.420;20.298;2023-02-19T01:19:00;28.30;;;10.82;;
70297;SDS011;57702;44.420;20.298;2023-02-19T01:21:27;30.63;;;12.43;;
70297;SDS011;57702;44.420;20.298;2023-02-19T01:23:54;49.42;;;12.10;;
70297;SDS011;57702;44.420;20.298;2023-02-19T01:26:21;52.10;;;18.55;;
70297;SDS011;57702;44.420;20.298;2023-02-19T01:28:49;33.35;;;13.20;;
70297;SDS011;57702;44.420;20.298;2023-02-19T01:31:16;38.08;;;14.95;;
70297;SDS011;57702;44.420;20.298;2023-02-19T01:33:43;75.63;;;16.40;;
70297;SDS011;57702;44.420;20.298;2023-02-19T01:36:10;36.38;;;16.95;;
70297;SDS011;57702;44.420;20.298;2023-02-19T01:38:37;29.23;;;11.07;;
70297;SDS011;57702;44.420;20.298;2023-02-19T01:41:04;40.55;;;14.25;;
70297;SDS011;57702;44.420;20.298;2023-02-19T01:43:31;46.58;;;12.02;;
70297;SDS011;57702;44.420;20.298;2023-02-19T01:45:58;33.92;;;13.02;;
70297;SDS011;57702;44.420;20.298;2023-02-19T01:51:04;37.35;;;11.25;;
70297;SDS011;57702;44.420;20.298;2023-02-19T01:53:33;27.08;;;10.18;;
70297;SDS011;57702;44.420;20.298;2023-02-19T01:56:02;34.25;;;11.43;;
70297;SDS011;57702;44.420;20.298;2023-02-19T01:58:30;32.55;;;15.38;;
70297;SDS011;57702;44.420;20.298;2023-02-19T02:00:58;41.05;;;10.30;;
70297;SDS011;57702;44.420;20.298;2023-02-19T02:03:25;22.48;;;7.75;;
70297;SDS011;57702;44.420;20.298;2023-02-19T02:05:55;15.90;;;7.15;;
70297;SDS011;57702;44.420;20.298;2023-02-19T02:08:23;48.43;;;12.13;;
70297;SDS011;57702;44.420;20.298;2023-02-19T02:11:08;17.67;;;8.70;;
70297;SDS011;57702;44.420;20.298;2023-02-19T02:13:36;18.85;;;8.32;;
70297;SDS011;57702;44.420;20.298;2023-02-19T02:24:05;18.48;;;9.18;;
70297;SDS011;57702;44.420;20.298;2023-02-19T02:26:48;17.85;;;7.43;;
70297;SDS011;57702;44.420;20.298;2023-02-19T02:34:18;6.38;;;5.72;;
70297;SDS011;57702;44.420;20.298;2023-02-19T02:36:46;27.50;;;9.00;;
70297;SDS011;57702;44.420;20.298;2023-02-19T02:39:15;28.92;;;9.90;;
70297;SDS011;57702;44.420;20.298;2023-02-19T02:41:43;21.05;;;8.70;;
70297;SDS011;57702;44.420;20.298;2023-02-19T02:44:10;40.00;;;14.98;;
70297;SDS011;57702;44.420;20.298;2023-02-19T02:46:37;73.28;;;15.88;;
70297;SDS011;57702;44.420;20.298;2023-02-19T02:49:16;65.68;;;18.52;;
70297;SDS011;57702;44.420;20.298;2023-02-19T02:51:45;58.22;;;19.23;;
70297;SDS011;57702;44.420;20.298;2023-02-19T02:54:16;128.07;;;29.27;;
70297;SDS011;57702;44.420;20.298;2023-02-19T02:57:02;76.55;;;24.00;;
70297;SDS011;57702;44.420;20.298;2023-02-19T02:59:32;52.63;;;19.88;;
70297;SDS011;57702;44.420;20.298;2023-02-19T03:07:22;22.88;;;11.63;;
70297;SDS011;57702;44.420;20.298;2023-02-19T03:09:49;19.50;;;8.70;;
70297;SDS011;57702;44.420;20.298;2023-02-19T03:12:15;16.83;;;9.57;;
70297;SDS011;57702;44.420;20.298;2023-02-19T03:15:03;13.40;;;5.80;;
70297;SDS011;57702;44.420;20.298;2023-02-19T03:17:52;9.60;;;5.80;;
70297;SDS011;57702;44.420;20.298;2023-02-19T03:20:39;14.70;;;9.00;;
70297;SDS011;57702;44.420;20.298;2023-02-19T03:23:07;24.50;;;8.75;;
70297;SDS011;57702;44.420;20.298;2023-02-19T03:25:34;11.25;;;6.43;;
70297;SDS011;57702;44.420;20.298;2023-02-19T03:28:20;11.45;;;7.53;;
70297;SDS011;57702;44.420;20.298;2023-02-19T03:31:07;9.93;;;6.10;;
70297;SDS011;57702;44.420;20.298;2023-02-19T03:33:34;7.22;;;6.40;;
70297;SDS011;57702;44.420;20.298;2023-02-19T03:36:01;32.42;;;7.38;;
70297;SDS011;57702;44.420;20.298;2023-02-19T03:38:40;22.92;;;6.43;;
70297;SDS011;57702;44.420;20.298;2023-02-19T03:46:51;32.50;;;10.13;;
70297;SDS011;57702;44.420;20.298;2023-02-19T03:49:18;29.70;;;10.23;;
70297;SDS011;57702;44.420;20.298;2023-02-19T03:52:00;11.88;;;7.40;;
70297;SDS011;57702;44.420;20.298;2023-02-19T03:54:31;39.80;;;16.08;;
70297;SDS011;57702;44.420;20.298;2023-02-19T03:59:54;46.38;;;16.38;;
70297;SDS011;57702;44.420;20.298;2023-02-19T04:02:27;21.95;;;9.68;;
70297;SDS011;57702;44.420;20.298;2023-02-19T04:07:34;40.75;;;13.20;;
70297;SDS011;57702;44.420;20.298;2023-02-19T04:10:00;61.25;;;15.75;;
70297;SDS011;57702;44.420;20.298;2023-02-19T04:12:27;36.15;;;12.70;;
70297;SDS011;57702;44.420;20.298;2023-02-19T04:15:01;41.80;;;12.60;;
70297;SDS011;57702;44.420;20.298;2023-02-19T04:17:30;39.53;;;11.80;;
70297;SDS011;57702;44.420;20.298;2023-02-19T04:19:59;33.47;;;13.30;;
70297;SDS011;57702;44.420;20.298;2023-02-19T04:22:26;26.63;;;10.98;;
70297;SDS011;57702;44.420;20.298;2023-02-19T04:24:52;19.65;;;10.60;;
70297;SDS011;57702;44.420;20.298;2023-02-19T04:27:20;23.90;;;11.07;;
70297;SDS011;57702;44.420;20.298;2023-02-19T04:29:46;48.38;;;12.65;;
70297;SDS011;57702;44.420;20.298;2023-02-19T04:32:13;38.35;;;11.43;;
70297;SDS011;57702;44.420;20.298;2023-02-19T04:34:39;39.67;;;11.90;;
70297;SDS011;57702;44.420;20.298;2023-02-19T04:37:05;27.60;;;11.60;;
70297;SDS011;57702;44.420;20.298;2023-02-19T04:39:32;24.50;;;14.10;;
70297;SDS011;57702;44.420;20.298;2023-02-19T04:41:58;36.95;;;16.77;;
70297;SDS011;57702;44.420;20.298;2023-02-19T04:44:24;45.53;;;13.85;;
70297;SDS011;57702;44.420;20.298;2023-02-19T04:46:51;26.38;;;11.48;;
70297;SDS011;57702;44.420;20.298;2023-02-19T04:49:17;27.50;;;14.70;;
70297;SDS011;57702;44.420;20.298;2023-02-19T04:51:43;39.17;;;14.82;;
70297;SDS011;57702;44.420;20.298;2023-02-19T04:54:09;37.58;;;15.00;;
70297;SDS011;57702;44.420;20.298;2023-02-19T04:56:36;27.90;;;15.65;;
70297;SDS011;57702;44.420;20.298;2023-02-19T04:59:02;41.05;;;16.60;;
70297;SDS011;57702;44.420;20.298;2023-02-19T05:01:29;36.78;;;16.20;;
70297;SDS011;57702;44.420;20.298;2023-02-19T05:03:55;48.83;;;14.23;;
70297;SDS011;57702;44.420;20.298;2023-02-19T05:06:21;50.78;;;17.60;;
70297;SDS011;57702;44.420;20.298;2023-02-19T05:08:47;72.25;;;19.42;;
70297;SDS011;57702;44.420;20.298;2023-02-19T05:11:14;44.17;;;15.18;;
70297;SDS011;57702;44.420;20.298;2023-02-19T05:13:40;40.45;;;14.77;;
70297;SDS011;57702;44.420;20.298;2023-02-19T05:16:08;55.63;;;21.23;;
70297;SDS011;57702;44.420;20.298;2023-02-19T05:18:37;42.78;;;19.33;;
70297;SDS011;57702;44.420;20.298;2023-02-19T05:21:03;40.33;;;15.82;;
70297;SDS011;57702;44.420;20.298;2023-02-19T05:23:29;45.85;;;18.00;;
70297;SDS011;57702;44.420;20.298;2023-02-19T05:25:56;54.05;;;19.10;;
70297;SDS011;57702;44.420;20.298;2023-02-19T05:28:22;42.10;;;18.20;;
70297;SDS011;57702;44.420;20.298;2023-02-19T05:30:53;36.30;;;17.23;;
70297;SDS011;57702;44.420;20.298;2023-02-19T05:33:20;38.92;;;20.85;;
70297;SDS011;57702;44.420;20.298;2023-02-19T05:35:51;40.50;;;19.25;;
70297;SDS011;57702;44.420;20.298;2023-02-19T05:38:17;40.08;;;15.00;;
70297;SDS011;57702;44.420;20.298;2023-02-19T05:40:44;31.10;;;13.77;;
70297;SDS011;57702;44.420;20.298;2023-02-19T05:43:11;41.97;;;17.25;;
70297;SDS011;57702;44.420;20.298;2023-02-19T05:45:37;34.67;;;16.38;;
70297;SDS011;57702;44.420;20.298;2023-02-19T05:48:04;32.80;;;13.95;;
70297;SDS011;57702;44.420;20.298;2023-02-19T05:50:32;63.05;;;20.17;;
70297;SDS011;57702;44.420;20.298;2023-02-19T05:52:59;64.20;;;20.40;;
70297;SDS011;57702;44.420;20.298;2023-02-19T05:55:25;35.13;;;16.15;;
70297;SDS011;57702;44.420;20.298;2023-02-19T05:57:52;49.10;;;17.77;;
70297;SDS011;57702;44.420;20.298;2023-02-19T06:00:18;39.05;;;18.35;;
70297;SDS011;57702;44.420;20.298;2023-02-19T06:02:45;35.20;;;17.85;;
70297;SDS011;57702;44.420;20.298;2023-02-19T06:05:11;39.40;;;16.45;;
70297;SDS011;57702;44.420;20.298;2023-02-19T06:07:38;48.13;;;15.85;;
70297;SDS011;57702;44.420;20.298;2023-02-19T06:10:05;45.83;;;21.63;;
70297;SDS011;57702;44.420;20.298;2023-02-19T06:12:32;31.85;;;16.73;;
70297;SDS011;57702;44.420;20.298;2023-02-19T06:14:58;92.15;;;28.80;;
70297;SDS011;57702;44.420;20.298;2023-02-19T06:17:24;87.43;;;29.75;;
70297;SDS011;57702;44.420;20.298;2023-02-19T06:19:51;106.68;;;32.22;;
70297;SDS011;57702;44.420;20.298;2023-02-19T06:22:17;47.67;;;21.20;;
70297;SDS011;57702;44.420;20.298;2023-02-19T06:24:43;54.45;;;28.45;;
70297;SDS011;57702;44.420;20.298;2023-02-19T06:27:09;57.75;;;22.77;;
70297;SDS011;57702;44.420;20.298;2023-02-19T06:29:35;81.32;;;30.63;;
70297;SDS011;57702;44.420;20.298;2023-02-19T06:32:02;65.28;;;29.38;;
70297;SDS011;57702;44.420;20.298;2023-02-19T06:34:29;62.53;;;23.00;;
70297;SDS011;57702;44.420;20.298;2023-02-19T06:36:56;34.50;;;16.20;;
70297;SDS011;57702;44.420;20.298;2023-02-19T06:39:22;24.35;;;13.52;;
70297;SDS011;57702;44.420;20.298;2023-02-19T06:41:48;41.08;;;19.13;;
70297;SDS011;57702;44.420;20.298;2023-02-19T06:44:15;35.78;;;14.18;;
70297;SDS011;57702;44.420;20.298;2023-02-19T06:46:41;55.65;;;19.90;;
70297;SDS011;57702;44.420;20.298;2023-02-19T06:49:08;31.35;;;14.80;;
70297;SDS011;57702;44.420;20.298;2023-02-19T06:51:34;63.45;;;18.70;;
70297;SDS011;57702;44.420;20.298;2023-02-19T06:54:01;54.15;;;19.88;;
70297;SDS011;57702;44.420;20.298;2023-02-19T06:56:28;36.53;;;19.83;;
70297;SDS011;57702;44.420;20.298;2023-02-19T06:58:56;22.42;;;15.25;;
70297;SDS011;57702;44.420;20.298;2023-02-19T07:01:24;32.13;;;18.33;;
70297;SDS011;57702;44.420;20.298;2023-02-19T07:03:51;157.63;;;45.20;;
70297;SDS011;57702;44.420;20.298;2023-02-19T07:06:18;85.72;;;27.13;;
70297;SDS011;57702;44.420;20.298;2023-02-19T07:08:44;42.40;;;20.77;;
70297;SDS011;57702;44.420;20.298;2023-02-19T07:11:13;40.72;;;12.82;;
70297;SDS011;57702;44.420;20.298;2023-02-19T07:13:40;66.30;;;20.42;;
70297;SDS011;57702;44.420;20.298;2023-02-19T07:16:07;43.60;;;18.25;;
70297;SDS011;57702;44.420;20.298;2023-02-19T07:18:34;61.22;;;19.30;;
70297;SDS011;57702;44.420;20.298;2023-02-19T07:21:03;33.20;;;14.38;;
70297;SDS011;57702;44.420;20.298;2023-02-19T07:23:30;29.90;;;13.35;;
70297;SDS011;57702;44.420;20.298;2023-02-19T07:25:56;44.63;;;15.43;;
70297;SDS011;57702;44.420;20.298;2023-02-19T07:28:23;44.88;;;15.93;;
70297;SDS011;57702;44.420;20.298;2023-02-19T07:30:49;48.03;;;15.45;;
70297;SDS011;57702;44.420;20.298;2023-02-19T07:33:15;53.45;;;21.17;;
70297;SDS011;57702;44.420;20.298;2023-02-19T07:35:45;50.10;;;21.98;;
70297;SDS011;57702;44.420;20.298;2023-02-19T07:38:13;53.55;;;16.55;;
70297;SDS011;57702;44.420;20.298;2023-02-19T07:40:40;38.90;;;16.23;;
70297;SDS011;57702;44.420;20.298;2023-02-19T07:43:07;20.65;;;10.60;;
70297;SDS011;57702;44.420;20.298;2023-02-19T07:45:33;53.80;;;12.35;;
70297;SDS011;57702;44.420;20.298;2023-02-19T07:48:00;49.72;;;17.95;;
70297;SDS011;57702;44.420;20.298;2023-02-19T07:50:26;35.78;;;15.20;;
70297;SDS011;57702;44.420;20.298;2023-02-19T07:52:52;26.17;;;13.95;;
70297;SDS011;57702;44.420;20.298;2023-02-19T07:55:18;24.15;;;11.82;;
70297;SDS011;57702;44.420;20.298;2023-02-19T07:57:44;18.25;;;10.35;;
70297;SDS011;57702;44.420;20.298;2023-02-19T08:00:11;26.40;;;12.80;;
70297;SDS011;57702;44.420;20.298;2023-02-19T08:02:37;38.47;;;10.35;;
70297;SDS011;57702;44.420;20.298;2023-02-19T08:05:22;41.30;;;10.98;;
70297;SDS011;57702;44.420;20.298;2023-02-19T08:07:48;49.92;;;10.75;;
70297;SDS011;57702;44.420;20.298;2023-02-19T08:10:14;29.83;;;10.82;;
70297;SDS011;57702;44.420;20.298;2023-02-19T08:12:59;36.60;;;10.88;;
70297;SDS011;57702;44.420;20.298;2023-02-19T08:15:45;27.88;;;11.38;;
70297;SDS011;57702;44.420;20.298;2023-02-19T08:18:12;32.95;;;12.70;;
70297;SDS011;57702;44.420;20.298;2023-02-19T08:20:38;49.58;;;15.60;;
70297;SDS011;57702;44.420;20.298;2023-02-19T08:23:05;62.78;;;22.42;;
70297;SDS011;57702;44.420;20.298;2023-02-19T08:25:32;63.08;;;21.70;;
70297;SDS011;57702;44.420;20.298;2023-02-19T08:27:58;74.80;;;22.98;;
70297;SDS011;57702;44.420;20.298;2023-02-19T08:30:25;85.40;;;21.73;;
70297;SDS011;57702;44.420;20.298;2023-02-19T08:32:51;54.85;;;20.50;;
70297;SDS011;57702;44.420;20.298;2023-02-19T08:35:18;62.28;;;19.58;;
70297;SDS011;57702;44.420;20.298;2023-02-19T08:37:44;89.70;;;19.98;;
70297;SDS011;57702;44.420;20.298;2023-02-19T08:40:10;46.03;;;20.13;;
70297;SDS011;57702;44.420;20.298;2023-02-19T08:42:37;68.45;;;19.80;;
70297;SDS011;57702;44.420;20.298;2023-02-19T08:45:03;73.30;;;23.00;;
70297;SDS011;57702;44.420;20.298;2023-02-19T08:47:29;58.70;;;22.52;;
70297;SDS011;57702;44.420;20.298;2023-02-19T08:49:56;73.30;;;21.98;;
70297;SDS011;57702;44.420;20.298;2023-02-19T08:52:22;100.30;;;34.95;;
70297;SDS011;57702;44.420;20.298;2023-02-19T08:54:48;96.57;;;33.63;;
70297;SDS011;57702;44.420;20.298;2023-02-19T08:57:14;62.03;;;25.60;;
70297;SDS011;57702;44.420;20.298;2023-02-19T08:59:41;91.35;;;26.42;;
70297;SDS011;57702;44.420;20.298;2023-02-19T09:02:07;151.10;;;33.33;;
70297;SDS011;57702;44.420;20.298;2023-02-19T09:04:34;164.85;;;54.25;;
70297;SDS011;57702;44.420;20.298;2023-02-19T09:07:02;80.22;;;32.83;;
70297;SDS011;57702;44.420;20.298;2023-02-19T09:09:32;92.32;;;29.13;;
70297;SDS011;57702;44.420;20.298;2023-02-19T09:11:58;66.20;;;26.90;;
70297;SDS011;57702;44.420;20.298;2023-02-19T09:14:25;43.30;;;18.25;;
70297;SDS011;57702;44.420;20.298;2023-02-19T09:16:51;64.32;;;24.73;;
70297;SDS011;57702;44.420;20.298;2023-02-19T09:19:17;46.78;;;19.00;;
70297;SDS011;57702;44.420;20.298;2023-02-19T09:21:43;28.98;;;11.55;;
70297;SDS011;57702;44.420;20.298;2023-02-19T09:24:09;18.80;;;6.28;;
70297;SDS011;57702;44.420;20.298;2023-02-19T09:26:35;15.85;;;6.53;;
70297;SDS011;57702;44.420;20.298;2023-02-19T09:29:02;3.97;;;3.58;;
70297;SDS011;57702;44.420;20.298;2023-02-19T09:31:28;11.15;;;5.65;;
70297;SDS011;57702;44.420;20.298;2023-02-19T09:33:54;2.28;;;2.08;;
70297;SDS011;57702;44.420;20.298;2023-02-19T09:36:20;2.63;;;2.42;;
70297;SDS011;57702;44.420;20.298;2023-02-19T09:38:47;6.32;;;4.50;;
70297;SDS011;57702;44.420;20.298;2023-02-19T09:41:17;10.35;;;3.83;;
70297;SDS011;57702;44.420;20.298;2023-02-19T09:43:47;42.75;;;6.70;;
70297;SDS011;57702;44.420;20.298;2023-02-19T09:46:20;5.50;;;3.03;;
70297;SDS011;57702;44.420;20.298;2023-02-19T09:48:47;17.88;;;5.55;;
70297;SDS011;57702;44.420;20.298;2023-02-19T09:51:14;7.82;;;3.38;;
70297;SDS011;57702;44.420;20.298;2023-02-19T09:53:42;12.10;;;3.15;;
70297;SDS011;57702;44.420;20.298;2023-02-19T09:56:09;11.98;;;3.20;;
70297;SDS011;57702;44.420;20.298;2023-02-19T09:58:41;6.05;;;3.03;;
70297;SDS011;57702;44.420;20.298;2023-02-19T10:01:09;7.22;;;2.95;;
70297;SDS011;57702;44.420;20.298;2023-02-19T10:03:37;39.10;;;8.82;;
70297;SDS011;57702;44.420;20.298;2023-02-19T10:06:06;13.73;;;5.68;;
70297;SDS011;57702;44.420;20.298;2023-02-19T10:08:36;13.73;;;4.55;;
70297;SDS011;57702;44.420;20.298;2023-02-19T10:11:03;14.57;;;4.07;;
70297;SDS011;57702;44.420;20.298;2023-02-19T10:13:31;12.10;;;4.07;;
70297;SDS011;57702;44.420;20.298;2023-02-19T10:15:59;10.38;;;3.72;;
70297;SDS011;57702;44.420;20.298;2023-02-19T10:18:27;6.30;;;4.18;;
70297;SDS011;57702;44.420;20.298;2023-02-19T10:20:54;20.08;;;4.75;;
70297;SDS011;57702;44.420;20.298;2023-02-19T10:23:20;11.73;;;4.07;;
70297;SDS011;57702;44.420;20.298;2023-02-19T10:25:52;11.30;;;4.25;;
70297;SDS011;57702;44.420;20.298;2023-02-19T10:28:20;3.88;;;3.20;;
70297;SDS011;57702;44.420;20.298;2023-02-19T10:30:52;9.32;;;3.58;;
70297;SDS011;57702;44.420;20.298;2023-02-19T10:33:18;37.83;;;11.07;;
70297;SDS011;57702;44.420;20.298;2023-02-19T10:38:18;18.65;;;3.88;;
70297;SDS011;57702;44.420;20.298;2023-02-19T10:40:45;4.30;;;2.97;;
70297;SDS011;57702;44.420;20.298;2023-02-19T10:43:21;4.28;;;2.70;;
70297;SDS011;57702;44.420;20.298;2023-02-19T10:45:55;3.88;;;2.95;;
70297;SDS011;57702;44.420;20.298;2023-02-19T10:48:26;2.50;;;2.25;;
70297;SDS011;57702;44.420;20.298;2023-02-19T10:50:54;5.88;;;2.72;;
70297;SDS011;57702;44.420;20.298;2023-02-19T10:53:38;6.18;;;3.40;;
70297;SDS011;57702;44.420;20.298;2023-02-19T10:56:09;1.98;;;1.40;;
70297;SDS011;57702;44.420;20.298;2023-02-19T10:58:35;2.13;;;1.40;;
70297;SDS011;57702;44.420;20.298;2023-02-19T11:01:11;4.00;;;2.35;;
70297;SDS011;57702;44.420;20.298;2023-02-19T11:03:37;3.80;;;1.77;;
70297;SDS011;57702;44.420;20.298;2023-02-19T11:06:04;1.65;;;1.30;;
70297;SDS011;57702;44.420;20.298;2023-02-19T11:08:43;4.95;;;2.53;;
70297;SDS011;57702;44.420;20.298;2023-02-19T11:11:33;10.85;;;4.85;;
70297;SDS011;57702;44.420;20.298;2023-02-19T11:13:58;2.65;;;2.22;;
70297;SDS011;57702;44.420;20.298;2023-02-19T11:16:36;3.67;;;2.97;;
70297;SDS011;57702;44.420;20.298;2023-02-19T11:19:03;9.73;;;3.97;;
70297;SDS011;57702;44.420;20.298;2023-02-19T11:21:29;2.85;;;2.13;;
70297;SDS011;57702;44.420;20.298;2023-02-19T11:26:24;2.47;;;1.88;;
70297;SDS011;57702;44.420;20.298;2023-02-19T11:28:56;4.38;;;1.80;;
70297;SDS011;57702;44.420;20.298;2023-02-19T11:31:26;14.52;;;2.55;;
70297;SDS011;57702;44.420;20.298;2023-02-19T11:34:01;3.40;;;2.22;;
70297;SDS011;57702;44.420;20.298;2023-02-19T11:36:36;11.23;;;1.98;;
70297;SDS011;57702;44.420;20.298;2023-02-19T11:47:54;8.27;;;2.28;;
70297;SDS011;57702;44.420;20.298;2023-02-19T11:53:37;3.83;;;2.42;;
70297;SDS011;57702;44.420;20.298;2023-02-19T11:56:30;5.38;;;2.92;;
70297;SDS011;57702;44.420;20.298;2023-02-19T11:59:04;6.72;;;2.67;;
70297;SDS011;57702;44.420;20.298;2023-02-19T12:01:57;3.28;;;1.73;;
70297;SDS011;57702;44.420;20.298;2023-02-19T12:12:57;6.57;;;3.08;;
70297;SDS011;57702;44.420;20.298;2023-02-19T12:15:31;8.88;;;2.63;;
70297;SDS011;57702;44.420;20.298;2023-02-19T12:20:41;1.98;;;1.88;;
70297;SDS011;57702;44.420;20.298;2023-02-19T12:30:51;2.95;;;2.10;;
70297;SDS011;57702;44.420;20.298;2023-02-19T12:36:01;7.05;;;2.17;;
70297;SDS011;57702;44.420;20.298;2023-02-19T12:38:49;5.00;;;1.80;;
70297;SDS011;57702;44.420;20.298;2023-02-19T12:41:22;3.22;;;1.85;;
70297;SDS011;57702;44.420;20.298;2023-02-19T12:43:59;1.00;;;0.98;;
70297;SDS011;57702;44.420;20.298;2023-02-19T12:46:35;1.90;;;1.50;;
70297;SDS011;57702;44.420;20.298;2023-02-19T12:49:04;2.92;;;1.33;;
70297;SDS011;57702;44.420;20.298;2023-02-19T12:54:11;3.97;;;1.70;;
70297;SDS011;57702;44.420;20.298;2023-02-19T13:07:32;1.20;;;1.13;;
70297;SDS011;57702;44.420;20.298;2023-02-19T13:16:20;7.15;;;2.30;;
70297;SDS011;57702;44.420;20.298;2023-02-19T13:19:03;2.72;;;2.45;;
70297;SDS011;57702;44.420;20.298;2023-02-19T13:25:36;1.55;;;1.35;;
70297;SDS011;57702;44.420;20.298;2023-02-19T13:30:59;9.30;;;1.50;;
70297;SDS011;57702;44.420;20.298;2023-02-19T13:38:48;3.80;;;1.55;;
70297;SDS011;57702;44.420;20.298;2023-02-19T13:41:38;16.00;;;2.58;;
70297;SDS011;57702;44.420;20.298;2023-02-19T13:44:15;3.80;;;1.77;;
70297;SDS011;57702;44.420;20.298;2023-02-19T13:46:59;2.95;;;1.67;;
70297;SDS011;57702;44.420;20.298;2023-02-19T13:57:47;4.10;;;2.33;;
70297;SDS011;57702;44.420;20.298;2023-02-19T14:06:06;9.93;;;3.25;;
70297;SDS011;57702;44.420;20.298;2023-02-19T14:08:53;3.47;;;2.53;;
70297;SDS011;57702;44.420;20.298;2023-02-19T14:19:57;3.20;;;1.90;;
70297;SDS011;57702;44.420;20.298;2023-02-19T14:33:33;2.42;;;0.98;;
70297;SDS011;57702;44.420;20.298;2023-02-19T14:39:17;7.78;;;1.60;;
70297;SDS011;57702;44.420;20.298;2023-02-19T14:41:55;1.38;;;1.27;;
70297;SDS011;57702;44.420;20.298;2023-02-19T14:45:00;2.08;;;1.48;;
70297;SDS011;57702;44.420;20.298;2023-02-19T14:47:39;5.20;;;1.92;;
70297;SDS011;57702;44.420;20.298;2023-02-19T14:50:28;3.80;;;1.92;;
70297;SDS011;57702;44.420;20.298;2023-02-19T14:52:56;7.07;;;2.20;;
70297;SDS011;57702;44.420;20.298;2023-02-19T14:57:58;1.20;;;1.15;;
70297;SDS011;57702;44.420;20.298;2023-02-19T15:03:04;1.05;;;1.05;;
70297;SDS011;57702;44.420;20.298;2023-02-19T15:05:33;1.38;;;1.23;;
70297;SDS011;57702;44.420;20.298;2023-02-19T15:08:10;2.63;;;1.40;;
70297;SDS011;57702;44.420;20.298;2023-02-19T15:10:37;1.52;;;1.42;;
70297;SDS011;57702;44.420;20.298;2023-02-19T15:13:04;7.50;;;1.30;;
70297;SDS011;57702;44.420;20.298;2023-02-19T15:15:32;3.85;;;2.05;;
70297;SDS011;57702;44.420;20.298;2023-02-19T15:18:01;3.63;;;1.88;;
70297;SDS011;57702;44.420;20.298;2023-02-19T15:20:29;7.88;;;2.03;;
70297;SDS011;57702;44.420;20.298;2023-02-19T15:22:56;14.93;;;2.13;;
70297;SDS011;57702;44.420;20.298;2023-02-19T15:25:26;6.63;;;2.05;;
70297;SDS011;57702;44.420;20.298;2023-02-19T15:27:54;17.67;;;2.45;;
70297;SDS011;57702;44.420;20.298;2023-02-19T15:30:24;20.80;;;1.75;;
70297;SDS011;57702;44.420;20.298;2023-02-19T15:32:58;8.40;;;1.92;;
70297;SDS011;57702;44.420;20.298;2023-02-19T15:35:25;4.30;;;2.13;;
70297;SDS011;57702;44.420;20.298;2023-02-19T15:37:52;1.70;;;1.25;;
70297;SDS011;57702;44.420;20.298;2023-02-19T15:40:19;2.03;;;1.27;;
70297;SDS011;57702;44.420;20.298;2023-02-19T15:42:48;7.20;;;2.60;;
70297;SDS011;57702;44.420;20.298;2023-02-19T15:47:59;12.30;;;1.90;;
70297;SDS011;57702;44.420;20.298;2023-02-19T15:50:29;11.38;;;2.47;;
70297;SDS011;57702;44.420;20.298;2023-02-19T15:57:50;10.13;;;3.70;;
70297;SDS011;57702;44.420;20.298;2023-02-19T16:00:29;29.05;;;5.38;;
70297;SDS011;57702;44.420;20.298;2023-02-19T16:02:57;15.43;;;3.97;;
70297;SDS011;57702;44.420;20.298;2023-02-19T16:05:24;20.52;;;4.10;;
70297;SDS011;57702;44.420;20.298;2023-02-19T16:10:57;10.30;;;4.13;;
70297;SDS011;57702;44.420;20.298;2023-02-19T16:13:24;10.02;;;4.18;;
70297;SDS011;57702;44.420;20.298;2023-02-19T16:15:57;12.93;;;3.88;;
70297;SDS011;57702;44.420;20.298;2023-02-19T16:18:26;17.33;;;3.28;;
70297;SDS011;57702;44.420;20.298;2023-02-19T16:20:55;15.88;;;3.55;;
70297;SDS011;57702;44.420;20.298;2023-02-19T16:23:21;18.95;;;4.45;;
70297;SDS011;57702;44.420;20.298;2023-02-19T16:25:48;16.70;;;4.32;;
70297;SDS011;57702;44.420;20.298;2023-02-19T16:28:22;19.75;;;5.97;;
70297;SDS011;57702;44.420;20.298;2023-02-19T16:30:56;20.60;;;6.20;;
70297;SDS011;57702;44.420;20.298;2023-02-19T16:33:39;23.25;;;5.82;;
70297;SDS011;57702;44.420;20.298;2023-02-19T16:41:25;11.93;;;5.13;;
70297;SDS011;57702;44.420;20.298;2023-02-19T16:43:52;11.30;;;4.10;;
70297;SDS011;57702;44.420;20.298;2023-02-19T16:46:18;13.88;;;4.80;;
70297;SDS011;57702;44.420;20.298;2023-02-19T16:48:44;5.53;;;3.30;;
70297;SDS011;57702;44.420;20.298;2023-02-19T16:51:14;6.82;;;3.92;;
70297;SDS011;57702;44.420;20.298;2023-02-19T16:53:42;25.17;;;5.97;;
70297;SDS011;57702;44.420;20.298;2023-02-19T16:56:12;36.60;;;8.75;;
70297;SDS011;57702;44.420;20.298;2023-02-19T16:58:40;28.20;;;8.00;;
70297;SDS011;57702;44.420;20.298;2023-02-19T17:01:06;39.92;;;9.82;;
70297;SDS011;57702;44.420;20.298;2023-02-19T17:03:32;40.72;;;10.80;;
70297;SDS011;57702;44.420;20.298;2023-02-19T17:05:59;30.08;;;8.65;;
70297;SDS011;57702;44.420;20.298;2023-02-19T17:08:29;16.67;;;5.25;;
70297;SDS011;57702;44.420;20.298;2023-02-19T17:10:58;29.02;;;5.95;;